createdAt,value
2022-11-24T00:01:12.701Z,99.90
2022-11-24T00:03:40.623Z,99.90
2022-11-24T00:06:10.792Z,99.90
2022-11-24T00:08:39.902Z,99.90
2022-11-24T00:11:11.240Z,99.90
2022-11-24T00:13:40.021Z,99.90
2022-11-24T00:16:10.625Z,99.90
2022-11-24T00:18:39.106Z,99.90
2022-11-24T00:21:07.388Z,99.90
2022-11-24T00:23:35.620Z,99.90
2022-11-24T00:26:08.217Z,99.90
2022-11-24T00:28:38.109Z,99.90
2022-11-24T00:31:17.150Z,99.90
2022-11-24T00:33:45.882Z,99.90
2022-11-24T00:36:13.715Z,99.90
2022-11-24T00:38:41.967Z,99.90
2022-11-24T00:41:09.713Z,99.90
2022-11-24T00:43:38.832Z,99.90
2022-11-24T00:46:07.143Z,99.90
2022-11-24T00:48:35.025Z,99.90
2022-11-24T00:51:04.384Z,99.90
2022-11-24T00:53:32.561Z,99.90
2022-11-24T00:56:00.497Z,99.90
2022-11-24T00:58:28.262Z,99.90
2022-11-24T05:04:13.136Z,99.90
2022-11-24T05:06:41.482Z,99.90
2022-11-24T05:09:09.655Z,99.90
2022-11-24T05:11:37.412Z,99.90
2022-11-24T05:16:39.173Z,99.90
2022-11-24T05:19:08.426Z,99.90
2022-11-24T05:21:36.269Z,99.90
2022-11-24T05:24:04.215Z,99.90
2022-11-24T05:26:31.979Z,99.90
2022-11-24T05:28:59.993Z,99.90
2022-11-24T05:31:27.850Z,99.90
2022-11-24T05:33:55.730Z,99.90
2022-11-24T05:36:38.859Z,99.90
2022-11-24T05:39:06.584Z,99.90
2022-11-24T05:41:34.351Z,99.90
2022-11-24T05:44:03.046Z,99.90
2022-11-24T05:46:31.118Z,99.90
2022-11-24T05:48:58.838Z,99.90
2022-11-24T05:51:28.015Z,99.90
2022-11-24T05:53:55.716Z,99.90
2022-11-24T05:56:23.478Z,99.90
2022-11-24T05:58:51.257Z,99.90
2022-11-24T06:01:19.054Z,99.90
2022-11-24T06:03:46.820Z,99.90
2022-11-24T06:06:14.566Z,99.90
2022-11-24T06:08:43.761Z,99.90
2022-11-24T06:11:20.293Z,99.90
2022-11-24T06:13:49.198Z,99.90
2022-11-24T06:16:17.243Z,99.90
2022-11-24T06:21:14.009Z,99.90
2022-11-24T06:23:43.151Z,99.90
2022-11-24T06:26:11.100Z,99.90
2022-11-24T06:28:38.993Z,99.90
2022-11-24T06:31:07.370Z,99.90
2022-11-24T06:33:36.659Z,99.90
2022-11-24T06:36:06.753Z,99.90
2022-11-24T06:38:36.763Z,99.90
2022-11-24T06:41:07.788Z,99.90
2022-11-24T06:43:36.311Z,99.90
2022-11-24T06:46:05.031Z,99.90
2022-11-24T06:48:33.120Z,99.90
2022-11-24T06:51:01.656Z,99.90
2022-11-24T06:53:31.521Z,99.90
2022-11-24T06:56:01.086Z,99.90
2022-11-24T06:58:30.192Z,99.90
2022-11-24T07:01:27.593Z,99.90
2022-11-24T07:14:56.604Z,99.90
2022-11-24T07:17:24.339Z,99.90
2022-11-24T07:19:52.072Z,99.90
2022-11-24T07:22:19.843Z,99.90
2022-11-24T07:24:47.607Z,99.90
2022-11-24T07:27:15.433Z,99.90
2022-11-24T07:32:16.049Z,99.90
2022-11-24T07:34:43.831Z,99.90
2022-11-24T07:37:14.245Z,99.90
2022-11-24T07:39:42.234Z,99.90
2022-11-24T07:42:11.311Z,99.90
2022-11-24T07:44:40.584Z,99.90
2022-11-24T07:47:10.995Z,99.90
2022-11-24T08:08:50.242Z,99.90
2022-11-24T08:11:19.012Z,99.90
2022-11-24T08:13:46.837Z,99.90
2022-11-24T08:16:16.342Z,99.90
2022-11-24T08:18:44.455Z,99.90
2022-11-24T08:21:14.937Z,99.90
2022-11-24T08:23:43.045Z,99.90
2022-11-24T08:26:15.669Z,99.90
2022-11-24T08:28:44.114Z,99.90
2022-11-24T08:31:13.972Z,99.90
2022-11-24T08:33:42.259Z,99.90
2022-11-24T08:36:13.994Z,99.90
2022-11-24T08:38:41.968Z,99.90
2022-11-24T08:41:11.641Z,99.90
2022-11-24T08:43:39.786Z,99.90
2022-11-24T08:46:09.582Z,99.90
2022-11-24T08:48:38.122Z,99.90
2022-11-24T08:51:09.028Z,99.90
2022-11-24T08:53:38.314Z,99.90
2022-11-24T08:56:06.963Z,99.90
2022-11-24T08:58:35.624Z,99.90
2022-11-24T09:01:07.961Z,99.90
2022-11-24T09:03:37.528Z,99.90
2022-11-24T09:06:05.738Z,99.90
2022-11-24T09:11:04.906Z,99.90
2022-11-24T09:13:33.015Z,99.90
2022-11-24T09:16:04.254Z,99.90
2022-11-24T09:21:08.562Z,99.90
2022-11-24T09:23:36.813Z,99.90
2022-11-24T09:26:07.192Z,99.90
2022-11-24T09:28:35.085Z,99.90
2022-11-24T09:31:03.693Z,99.90
2022-11-24T09:33:31.934Z,99.90
2022-11-24T09:35:59.957Z,99.90
2022-11-24T09:38:28.133Z,99.90
2022-11-24T09:40:56.533Z,99.90
2022-11-24T09:43:36.993Z,99.90
2022-11-24T09:46:12.601Z,99.90
2022-11-24T09:48:43.371Z,99.90
2022-11-24T09:51:13.905Z,99.90
2022-11-24T09:53:47.960Z,99.90
2022-11-24T09:56:21.518Z,99.90
2022-11-24T09:58:52.909Z,99.90
2022-11-24T10:01:23.409Z,99.90
2022-11-24T10:03:52.455Z,99.90
2022-11-24T10:06:26.389Z,99.90
2022-11-24T10:09:11.535Z,99.90
2022-11-24T10:11:46.555Z,99.90
2022-11-24T10:14:51.516Z,99.90
2022-11-24T10:17:30.049Z,99.90
2022-11-24T10:20:03.704Z,99.90
2022-11-24T10:22:44.174Z,99.90
2022-11-24T10:25:19.682Z,99.90
2022-11-24T10:27:51.598Z,99.90
2022-11-24T10:30:23.827Z,99.90
2022-11-24T10:32:57.176Z,99.90
2022-11-24T10:35:31.273Z,99.90
2022-11-24T10:38:07.984Z,99.90
2022-11-24T10:40:56.657Z,99.90
2022-11-24T10:43:27.500Z,99.90
2022-11-24T10:46:01.775Z,99.90
2022-11-24T10:48:38.457Z,99.90
2022-11-24T10:51:29.269Z,99.90
2022-11-24T10:54:03.457Z,99.80
2022-11-24T10:56:40.156Z,93.40
2022-11-24T10:59:23.497Z,76.10
2022-11-24T11:01:53.857Z,83.00
2022-11-24T11:04:23.610Z,65.60
2022-11-24T11:06:51.456Z,43.80
2022-11-24T11:09:21.039Z,43.10
2022-11-24T11:11:49.611Z,40.70
2022-11-24T11:14:17.514Z,27.80
2022-11-24T11:16:51.272Z,12.20
2022-11-24T11:19:48.923Z,16.80
2022-11-24T11:22:25.315Z,21.10
2022-11-24T11:25:06.124Z,16.50
2022-11-24T11:27:35.263Z,21.50
2022-11-24T11:36:17.628Z,3.50
2022-11-24T11:38:47.967Z,1.60
2022-11-24T11:41:21.549Z,1.00
2022-11-24T11:43:55.621Z,1.00
2022-11-24T11:46:27.118Z,1.00
2022-11-24T11:48:55.573Z,1.00
2022-11-24T11:51:46.420Z,1.00
2022-11-24T11:54:19.398Z,1.00
2022-11-24T11:56:50.399Z,1.00
2022-11-24T11:59:51.866Z,1.00
2022-11-24T12:02:56.699Z,1.00
2022-11-24T12:05:32.502Z,1.00
2022-11-24T12:08:21.758Z,1.00
2022-11-24T12:10:56.060Z,1.00
2022-11-24T12:13:55.702Z,1.00
2022-11-24T12:16:34.782Z,1.00
2022-11-24T12:19:16.223Z,1.00
2022-11-24T12:21:53.395Z,1.00
2022-11-24T12:24:31.544Z,1.00
2022-11-24T12:27:05.085Z,1.00
2022-11-24T12:29:58.303Z,1.00
2022-11-24T12:32:44.384Z,1.00
2022-11-24T12:35:20.815Z,1.00
2022-11-24T12:37:58.548Z,1.00
2022-11-24T12:40:46.691Z,1.00
2022-11-24T12:43:20.686Z,1.00
2022-11-24T12:45:57.843Z,1.00
2022-11-24T12:48:33.751Z,1.00
2022-11-24T12:51:02.486Z,1.00
2022-11-24T12:53:34.192Z,1.00
2022-11-24T12:56:09.384Z,1.00
2022-11-24T12:58:45.625Z,1.00
2022-11-24T13:01:18.642Z,1.00
2022-11-24T13:03:59.445Z,1.00
2022-11-24T13:06:35.238Z,1.00
2022-11-24T13:09:10.418Z,1.00
2022-11-24T13:11:44.679Z,1.00
2022-11-24T13:14:19.177Z,1.00
2022-11-24T13:19:43.895Z,1.00
2022-11-24T13:22:17.757Z,1.00
2022-11-24T13:24:46.047Z,1.00
2022-11-24T13:27:41.424Z,1.00
2022-11-24T13:30:52.350Z,1.00
2022-11-24T13:33:34.268Z,1.00
2022-11-24T13:36:33.439Z,1.00
2022-11-24T13:39:03.036Z,1.00
2022-11-24T13:42:08.254Z,1.00
2022-11-24T13:44:57.463Z,1.00
2022-11-24T13:47:34.314Z,1.00
2022-11-24T13:50:03.339Z,1.00
2022-11-24T13:52:47.367Z,1.00
2022-11-24T13:55:29.761Z,1.00
2022-11-24T13:58:01.446Z,1.00
2022-11-24T14:00:32.576Z,1.00
2022-11-24T14:03:04.631Z,1.00
2022-11-24T14:05:38.920Z,1.00
2022-11-24T14:08:08.514Z,1.00
2022-11-24T14:10:38.950Z,1.00
2022-11-24T14:13:34.044Z,1.00
2022-11-24T14:16:05.822Z,1.00
2022-11-24T14:18:35.334Z,1.00
2022-11-24T14:21:22.505Z,1.00
2022-11-24T14:23:52.749Z,1.00
2022-11-24T14:26:22.118Z,1.00
2022-11-24T14:28:51.090Z,1.00
2022-11-24T14:31:24.272Z,1.00
2022-11-24T14:34:08.054Z,1.00
2022-11-24T14:36:35.925Z,1.00
2022-11-24T14:39:04.024Z,1.00
2022-11-24T14:41:33.170Z,1.00
2022-11-24T14:44:13.806Z,1.00
2022-11-24T14:46:43.487Z,1.00
2022-11-24T14:49:17.173Z,1.00
2022-11-24T14:51:47.823Z,1.00
2022-11-24T14:54:21.251Z,1.00
2022-11-24T14:57:05.161Z,1.00
2022-11-24T14:59:35.970Z,1.00
2022-11-24T15:02:39.176Z,1.00
2022-11-24T15:05:07.525Z,1.00
2022-11-24T15:07:38.526Z,1.00
2022-11-24T15:10:21.028Z,1.00
2022-11-24T15:12:55.566Z,1.00
2022-11-24T15:15:29.336Z,1.00
2022-11-24T15:18:00.193Z,1.00
2022-11-24T15:20:30.643Z,1.00
2022-11-24T15:23:21.462Z,1.00
2022-11-24T15:25:50.065Z,1.00
2022-11-24T15:28:20.279Z,1.00
2022-11-24T15:30:48.135Z,1.00
2022-11-24T15:33:21.108Z,1.00
2022-11-24T15:35:49.353Z,1.00
2022-11-24T15:38:18.263Z,1.00
2022-11-24T15:40:47.881Z,1.00
2022-11-24T15:43:23.699Z,1.00
2022-11-24T15:48:21.446Z,1.00
2022-11-24T15:50:50.440Z,1.00
2022-11-24T15:53:22.491Z,1.00
2022-11-24T15:55:51.204Z,1.00
2022-11-24T15:58:19.443Z,1.00
2022-11-24T16:00:47.570Z,1.00
2022-11-24T16:03:45.566Z,1.00
2022-11-24T16:06:05.696Z,1.00
2022-11-24T16:08:33.618Z,1.00
2022-11-24T16:11:01.510Z,1.00
2022-11-24T16:13:29.676Z,1.00
2022-11-24T16:15:57.549Z,1.00
2022-11-24T16:18:25.623Z,1.00
2022-11-24T16:20:53.784Z,1.00
2022-11-24T16:23:22.982Z,1.00
2022-11-24T16:25:50.863Z,1.00
2022-11-24T16:28:20.282Z,1.00
2022-11-24T16:30:50.617Z,1.00
2022-11-24T16:33:19.083Z,1.00
2022-11-24T16:35:49.286Z,1.00
2022-11-24T16:38:18.413Z,1.00
2022-11-24T16:40:52.620Z,1.00
2022-11-24T16:43:20.984Z,1.00
2022-11-24T16:46:00.198Z,1.00
2022-11-24T16:48:28.490Z,1.00
2022-11-24T16:50:56.544Z,1.00
2022-11-24T16:53:24.933Z,1.00
2022-11-24T16:55:59.146Z,1.00
2022-11-24T16:58:27.074Z,1.00
2022-11-24T17:00:54.985Z,1.00
2022-11-24T17:03:23.001Z,1.00
2022-11-24T17:05:57.989Z,1.00
2022-11-24T17:08:25.765Z,1.00
2022-11-24T17:13:24.259Z,1.00
2022-11-24T17:18:24.989Z,1.00
2022-11-24T17:20:53.316Z,1.00
2022-11-24T17:23:21.063Z,1.00
2022-11-24T17:25:49.035Z,1.00
2022-11-24T17:28:16.813Z,1.00
2022-11-24T17:30:47.265Z,1.00
2022-11-24T17:33:15.069Z,1.00
2022-11-24T17:35:42.785Z,1.00
2022-11-24T17:38:10.570Z,1.00
2022-11-24T17:40:38.317Z,1.00
2022-11-24T17:43:06.098Z,1.00
2022-11-24T17:45:33.963Z,1.00
2022-11-24T17:48:03.108Z,1.00
2022-11-24T17:50:30.857Z,1.00
2022-11-24T17:52:58.771Z,1.00
2022-11-24T17:55:26.524Z,1.00
2022-11-24T17:57:54.407Z,1.00
2022-11-24T18:02:50.557Z,1.00
2022-11-24T18:05:19.676Z,1.00
2022-11-24T18:07:47.622Z,1.00
2022-11-24T18:10:16.669Z,1.00
2022-11-24T18:12:44.438Z,1.00
2022-11-24T18:15:12.382Z,1.00
2022-11-24T18:17:40.255Z,1.00
2022-11-24T18:20:09.662Z,1.00
2022-11-24T18:25:26.647Z,1.00
2022-11-24T18:27:54.363Z,1.00
2022-11-24T18:30:22.309Z,1.00
2022-11-24T18:32:50.026Z,1.00
2022-11-24T18:35:17.793Z,1.00
2022-11-24T18:37:47.019Z,1.00
2022-11-24T18:40:15.214Z,1.00
2022-11-24T18:42:43.055Z,1.00
2022-11-24T18:45:11.806Z,1.00
2022-11-24T18:47:39.563Z,1.00
2022-11-24T18:50:09.044Z,1.00
2022-11-24T18:52:36.769Z,1.00
2022-11-24T18:55:06.263Z,1.00
2022-11-24T18:57:34.022Z,1.00
2022-11-24T19:00:01.768Z,1.00
2022-11-24T19:02:29.499Z,1.00
2022-11-24T19:04:57.302Z,1.00
2022-11-24T19:07:25.047Z,1.00
2022-11-24T19:12:22.449Z,1.00
2022-11-24T19:14:50.165Z,1.00
2022-11-24T19:17:17.978Z,1.00
2022-11-24T19:19:45.717Z,1.00
2022-11-24T19:22:15.688Z,1.00
2022-11-24T19:27:13.152Z,1.00
2022-11-24T19:29:43.328Z,1.00
2022-11-24T19:32:11.278Z,1.00
2022-11-24T19:34:39.398Z,1.00
2022-11-24T19:37:07.113Z,1.00
2022-11-24T19:39:34.902Z,1.00
2022-11-24T19:42:04.599Z,1.00
2022-11-24T19:44:32.559Z,1.00
2022-11-24T19:47:02.731Z,1.00
2022-11-24T19:49:30.503Z,2.30
2022-11-24T19:51:58.273Z,3.30
2022-11-24T19:54:26.079Z,4.40
2022-11-24T19:56:55.446Z,1.00
2022-11-24T19:59:26.409Z,1.00
2022-11-24T20:01:54.939Z,5.00
2022-11-24T20:04:24.219Z,3.00
2022-11-24T20:06:52.379Z,4.30
2022-11-24T20:09:20.171Z,9.70
2022-11-24T20:11:49.005Z,9.70
2022-11-24T20:14:18.942Z,10.30
2022-11-24T20:16:47.743Z,7.90
2022-11-24T20:19:17.488Z,8.50
2022-11-24T20:21:49.231Z,11.20
2022-11-24T20:24:19.557Z,16.40
2022-11-24T20:26:49.286Z,13.70
2022-11-24T20:29:17.670Z,18.40
2022-11-24T20:31:47.952Z,19.10
2022-11-24T20:34:16.065Z,20.20
2022-11-24T20:36:47.031Z,16.00
2022-11-24T20:39:17.163Z,21.20
2022-11-24T20:41:45.288Z,20.30
2022-11-24T20:44:16.134Z,24.90
2022-11-24T20:46:45.916Z,21.10
2022-11-24T20:49:16.710Z,29.30
2022-11-24T20:51:46.979Z,26.80
2022-11-24T20:54:18.142Z,27.90
2022-11-24T20:56:47.350Z,25.10
2022-11-24T20:59:17.079Z,30.40
2022-11-24T21:01:46.987Z,32.10
2022-11-24T21:04:16.931Z,33.40
2022-11-24T21:06:44.881Z,30.50
2022-11-24T21:09:12.978Z,37.60
2022-11-24T21:11:42.825Z,38.40
2022-11-24T21:14:11.234Z,38.80
2022-11-24T21:16:41.168Z,33.40
2022-11-24T21:19:12.145Z,38.40
2022-11-24T21:21:42.421Z,39.90
2022-11-24T21:24:13.157Z,39.80
2022-11-24T21:26:43.874Z,34.50
2022-11-24T21:29:14.061Z,41.10
2022-11-24T21:31:42.488Z,40.30
2022-11-24T21:34:10.607Z,41.70
2022-11-24T21:36:40.699Z,38.30
2022-11-24T21:39:08.515Z,44.50
2022-11-24T21:41:36.223Z,46.90
2022-11-24T21:44:05.894Z,48.10
2022-11-24T21:46:40.515Z,42.10
2022-11-24T21:49:13.156Z,47.50
2022-11-24T21:51:40.892Z,49.10
2022-11-24T21:54:09.133Z,43.50
2022-11-24T21:56:36.876Z,48.20
2022-11-24T21:59:05.935Z,48.00
2022-11-24T22:01:33.712Z,54.60
2022-11-24T22:04:02.212Z,52.10
2022-11-24T22:08:58.363Z,49.90
2022-11-24T22:11:26.804Z,49.50
2022-11-24T22:13:54.696Z,54.10
2022-11-24T22:16:25.538Z,49.90
2022-11-24T22:18:53.799Z,57.30
2022-11-24T22:21:29.136Z,59.60
2022-11-24T22:23:57.153Z,64.30
2022-11-24T22:26:25.394Z,65.60
2022-11-24T22:28:54.186Z,67.60
2022-11-24T22:31:24.882Z,75.60
2022-11-24T22:33:53.799Z,77.80
2022-11-24T22:36:23.558Z,74.20
2022-11-24T22:38:54.572Z,80.70
2022-11-24T22:41:22.646Z,80.60
2022-11-24T22:43:50.677Z,75.40
2022-11-24T22:46:20.304Z,79.40
2022-11-24T22:48:52.764Z,85.50
2022-11-24T22:51:23.152Z,82.00
2022-11-24T22:53:52.376Z,89.60
2022-11-24T22:56:20.859Z,91.30
2022-11-24T22:58:49.118Z,94.90
2022-11-24T23:01:19.402Z,97.90
2022-11-24T23:03:49.457Z,99.30
2022-11-24T23:06:20.209Z,97.80
2022-11-24T23:08:48.900Z,97.30
2022-11-24T23:11:18.502Z,96.70
2022-11-24T23:13:46.451Z,96.50
2022-11-24T23:16:15.895Z,95.80
2022-11-24T23:18:44.475Z,98.30
2022-11-24T23:21:15.534Z,97.60
2022-11-24T23:23:44.103Z,97.80
2022-11-24T23:26:13.727Z,94.90
2022-11-24T23:28:43.056Z,97.20
2022-11-24T23:31:12.488Z,96.40
2022-11-24T23:33:40.678Z,96.20
2022-11-24T23:36:10.834Z,91.60
2022-11-24T23:38:40.589Z,94.50
2022-11-24T23:41:11.553Z,93.60
2022-11-24T23:43:40.565Z,93.20
2022-11-24T23:46:10.300Z,90.70
2022-11-24T23:48:38.484Z,93.50
2022-11-24T23:51:06.946Z,89.80
2022-11-24T23:53:35.618Z,92.60
2022-11-24T23:56:04.993Z,88.20
2022-11-24T23:58:33.105Z,95.00
